createdAt,value
2023-02-04T00:00:21.438Z,2.42
2023-02-04T00:02:47.954Z,2.43
2023-02-04T00:05:16.490Z,2.44
2023-02-04T00:07:42.930Z,2.47
2023-02-04T00:10:09.745Z,2.51
2023-02-04T00:12:36.312Z,2.51
2023-02-04T00:15:03.143Z,2.49
2023-02-04T00:17:29.595Z,2.51
2023-02-04T00:19:56.044Z,2.51
2023-02-04T00:22:22.521Z,2.51
2023-02-04T00:24:50.576Z,2.50
2023-02-04T00:27:17.093Z,2.50
2023-02-04T00:29:43.563Z,2.49
2023-02-04T00:32:10.157Z,2.51
2023-02-04T00:34:36.843Z,2.49
2023-02-04T00:37:03.263Z,2.43
2023-02-04T00:39:29.707Z,2.48
2023-02-04T00:41:56.181Z,2.52
2023-02-04T00:44:22.628Z,2.54
2023-02-04T00:46:49.119Z,2.54
2023-02-04T00:49:15.561Z,2.56
2023-02-04T00:51:46.327Z,2.57
2023-02-04T00:54:12.848Z,2.55
2023-02-04T00:56:39.346Z,2.55
2023-02-04T00:59:05.855Z,2.52
2023-02-04T01:01:32.307Z,2.52
2023-02-04T01:03:58.756Z,2.47
2023-02-04T01:06:25.441Z,2.52
2023-02-04T01:08:52.003Z,2.49
2023-02-04T01:11:18.567Z,2.43
2023-02-04T01:13:45.067Z,2.42
2023-02-04T01:16:11.647Z,2.40
2023-02-04T01:18:38.226Z,2.40
2023-02-04T01:21:04.719Z,2.38
2023-02-04T01:23:31.172Z,2.28
2023-02-04T01:25:57.632Z,2.20
2023-02-04T01:28:24.208Z,2.26
2023-02-04T01:30:50.722Z,2.32
2023-02-04T01:33:17.482Z,2.37
2023-02-04T01:35:43.922Z,2.33
2023-02-04T01:38:10.398Z,2.23
2023-02-04T01:40:37.111Z,2.22
2023-02-04T01:43:03.683Z,2.24
2023-02-04T01:45:30.827Z,2.21
2023-02-04T01:47:57.541Z,2.12
2023-02-04T01:50:24.007Z,2.15
2023-02-04T01:52:50.511Z,2.23
2023-02-04T01:55:18.440Z,2.19
2023-02-04T01:57:45.701Z,2.18
2023-02-04T02:00:16.929Z,2.16
2023-02-04T02:02:45.289Z,2.18
2023-02-04T02:05:21.304Z,2.19
2023-02-04T02:07:48.416Z,2.13
2023-02-04T02:10:15.910Z,2.09
2023-02-04T02:12:43.106Z,2.12
2023-02-04T02:15:09.889Z,2.11
2023-02-04T02:17:36.912Z,2.14
2023-02-04T02:20:03.997Z,2.22
2023-02-04T02:22:34.338Z,2.17
2023-02-04T02:25:00.809Z,2.16
2023-02-04T02:27:27.232Z,2.16
2023-02-04T02:29:53.689Z,2.15
2023-02-04T02:32:20.520Z,2.13
2023-02-04T02:34:47.174Z,2.09
2023-02-04T02:37:14.013Z,2.07
2023-02-04T02:39:42.192Z,2.10
2023-02-04T02:42:09.791Z,2.11
2023-02-04T02:44:36.223Z,2.15
2023-02-04T02:47:02.794Z,2.10
2023-02-04T02:49:30.485Z,2.14
2023-02-04T02:51:56.934Z,2.13
2023-02-04T02:54:24.800Z,2.11
2023-02-04T02:56:51.614Z,2.10
2023-02-04T02:59:18.419Z,2.15
2023-02-04T03:01:48.024Z,2.13
2023-02-04T03:04:15.265Z,2.14
2023-02-04T03:06:41.794Z,2.18
2023-02-04T03:09:08.285Z,2.21
2023-02-04T03:11:34.809Z,2.20
2023-02-04T03:14:01.806Z,2.19
2023-02-04T03:16:29.050Z,2.14
2023-02-04T03:18:55.748Z,2.13
2023-02-04T03:21:22.364Z,2.09
2023-02-04T03:23:48.870Z,2.13
2023-02-04T03:26:15.334Z,2.14
2023-02-04T03:28:42.304Z,2.13
2023-02-04T03:31:09.310Z,2.10
2023-02-04T03:33:36.035Z,2.08
2023-02-04T03:36:02.560Z,2.06
2023-02-04T03:38:29.055Z,2.01
2023-02-04T03:40:55.553Z,1.89
2023-02-04T03:43:22.002Z,1.89
2023-02-04T03:45:48.545Z,1.89
2023-02-04T03:48:15.100Z,1.86
2023-02-04T03:50:41.684Z,1.88
2023-02-04T03:53:08.293Z,1.83
2023-02-04T03:55:35.992Z,1.80
2023-02-04T03:58:03.133Z,1.82
2023-02-04T04:00:29.997Z,1.88
2023-02-04T04:02:57.534Z,1.97
2023-02-04T04:05:24.206Z,1.90
2023-02-04T04:07:50.758Z,1.87
2023-02-04T04:10:17.260Z,1.94
2023-02-04T04:12:43.695Z,2.03
2023-02-04T04:15:10.537Z,2.07
2023-02-04T04:17:36.990Z,2.13
2023-02-04T04:20:03.948Z,2.20
2023-02-04T04:22:30.371Z,2.13
2023-02-04T04:24:56.869Z,2.21
2023-02-04T04:27:23.356Z,2.26
2023-02-04T04:29:49.776Z,2.30
2023-02-04T04:32:16.201Z,2.31
2023-02-04T04:34:42.650Z,2.32
2023-02-04T04:37:09.065Z,2.33
2023-02-04T04:39:35.545Z,2.35
2023-02-04T04:42:01.959Z,2.35
2023-02-04T04:44:28.378Z,2.40
2023-02-04T04:46:54.891Z,2.46
2023-02-04T04:49:21.457Z,2.47
2023-02-04T04:51:47.915Z,2.37
2023-02-04T04:54:14.375Z,2.38
2023-02-04T04:56:40.883Z,2.35
2023-02-04T04:59:07.398Z,2.35
2023-02-04T05:01:33.921Z,2.34
2023-02-04T05:04:00.349Z,2.38
2023-02-04T05:06:26.827Z,2.38
2023-02-04T05:08:53.326Z,2.36
2023-02-04T05:11:20.077Z,2.36
2023-02-04T05:13:47.020Z,2.33
2023-02-04T05:16:13.681Z,2.30
2023-02-04T05:18:40.414Z,2.20
2023-02-04T05:21:07.029Z,2.19
2023-02-04T05:23:33.969Z,2.24
2023-02-04T05:26:00.559Z,2.24
2023-02-04T05:28:26.988Z,2.19
2023-02-04T05:30:53.478Z,2.24
2023-02-04T07:05:07.827Z,-0.23
2023-02-04T07:07:34.529Z,-0.36
2023-02-04T07:15:37.369Z,-0.65
2023-02-04T07:21:02.251Z,-0.68
2023-02-04T07:23:28.711Z,-0.76
2023-02-04T07:25:57.392Z,-0.83
2023-02-04T07:28:23.937Z,-0.96
2023-02-04T07:30:50.449Z,-0.94
2023-02-04T07:33:17.389Z,-1.02
2023-02-04T07:35:44.460Z,-1.05
2023-02-04T07:38:10.884Z,-1.01
2023-02-04T07:40:37.462Z,-1.12
2023-02-04T07:43:03.918Z,-1.19
2023-02-04T07:45:30.354Z,-1.24
2023-02-04T07:47:56.794Z,-1.28
2023-02-04T07:50:23.258Z,-1.30
2023-02-04T07:52:49.670Z,-1.35
2023-02-04T07:55:16.207Z,-1.39
2023-02-04T07:57:42.666Z,-1.45
2023-02-04T08:00:09.812Z,-1.46
2023-02-04T08:02:36.308Z,-1.44
2023-02-04T08:05:03.182Z,-1.48
2023-02-04T08:07:29.629Z,-1.48
2023-02-04T08:09:56.086Z,-1.45
2023-02-04T08:12:22.571Z,-1.51
2023-02-04T08:14:49.235Z,-1.56
2023-02-04T08:17:15.748Z,-1.57
2023-02-04T08:19:42.340Z,-1.62
2023-02-04T08:22:08.860Z,-1.61
2023-02-04T08:24:35.268Z,-1.62
2023-02-04T08:27:01.697Z,-1.64
2023-02-04T08:29:28.172Z,-1.66
2023-02-04T08:31:54.843Z,-1.72
2023-02-04T08:34:21.343Z,-1.76
2023-02-04T08:36:47.783Z,-1.71
2023-02-04T08:39:14.313Z,-1.75
2023-02-04T08:41:40.771Z,-1.76
2023-02-04T08:44:07.297Z,-1.79
2023-02-04T08:46:33.732Z,-1.90
2023-02-04T08:49:00.206Z,-1.92
2023-02-04T08:51:26.656Z,-1.89
2023-02-04T08:53:53.125Z,-1.89
2023-02-04T08:56:20.633Z,-1.95
2023-02-04T08:58:48.193Z,-1.93
2023-02-04T09:01:14.825Z,-1.98
2023-02-04T09:03:41.303Z,-2.03
2023-02-04T09:06:08.769Z,-2.09
2023-02-04T09:08:35.305Z,-2.06
2023-02-04T09:11:02.064Z,-2.06
2023-02-04T09:13:28.495Z,-2.11
2023-02-04T09:15:55.074Z,-2.14
2023-02-04T09:18:22.542Z,-2.13
2023-02-04T09:20:49.573Z,-2.17
2023-02-04T09:23:16.363Z,-2.18
2023-02-04T09:25:43.952Z,-2.17
2023-02-04T09:28:11.856Z,-2.21
2023-02-04T09:30:39.074Z,-2.30
2023-02-04T09:33:05.571Z,-2.32
2023-02-04T09:35:31.986Z,-2.35
2023-02-04T09:37:58.422Z,-2.38
2023-02-04T09:40:26.738Z,-2.41
2023-02-04T09:42:54.478Z,-2.44
2023-02-04T09:45:23.400Z,-2.46
2023-02-04T09:47:50.710Z,-2.47
2023-02-04T09:50:18.712Z,-2.41
2023-02-04T09:52:46.945Z,-2.40
2023-02-04T09:55:14.681Z,-2.38
2023-02-04T09:57:41.700Z,-2.41
2023-02-04T10:00:15.588Z,-2.37
2023-02-04T10:02:42.055Z,-2.44
2023-02-04T10:05:16.031Z,-2.41
2023-02-04T10:07:43.564Z,-2.43
2023-02-04T10:10:14.638Z,-2.39
2023-02-04T10:12:41.128Z,-2.36
2023-02-04T10:15:11.125Z,-2.36
2023-02-04T10:17:37.556Z,-2.39
2023-02-04T10:20:04.101Z,-2.41
2023-02-04T10:22:30.706Z,-2.39
2023-02-04T10:24:57.158Z,-2.41
2023-02-04T10:27:23.622Z,-2.44
2023-02-04T10:29:59.412Z,-2.39
2023-02-04T10:32:27.543Z,-2.37
2023-02-04T10:34:57.209Z,-2.29
2023-02-04T10:37:23.651Z,-2.20
2023-02-04T10:39:50.177Z,-2.20
2023-02-04T10:42:23.885Z,-2.21
2023-02-04T10:44:50.445Z,-2.23
2023-02-04T10:47:18.327Z,-2.22
2023-02-04T10:49:55.203Z,-2.26
2023-02-04T10:52:23.276Z,-2.22
2023-02-04T10:54:49.839Z,-2.16
2023-02-04T10:57:29.221Z,-2.12
2023-02-04T11:00:00.121Z,-2.03
2023-02-04T11:02:42.395Z,-2.02
2023-02-04T11:05:11.267Z,-2.05
2023-02-04T11:07:37.685Z,-2.08
2023-02-04T11:10:04.328Z,-2.06
2023-02-04T11:12:36.876Z,-2.11
2023-02-04T11:15:04.211Z,-2.10
2023-02-04T11:17:31.688Z,-2.11
2023-02-04T11:19:59.873Z,-2.08
2023-02-04T11:22:43.260Z,-2.12
2023-02-04T11:25:28.548Z,-2.10
2023-02-04T11:27:55.020Z,-2.08
2023-02-04T11:30:22.232Z,-2.07
2023-02-04T11:33:02.524Z,-2.10
2023-02-04T11:35:29.319Z,-2.09
2023-02-04T11:37:56.087Z,-2.12
2023-02-04T11:40:24.651Z,-2.08
2023-02-04T11:42:56.292Z,-2.07
2023-02-04T11:45:41.190Z,-2.08
2023-02-04T11:48:15.489Z,-2.11
2023-02-04T11:50:42.115Z,-2.10
2023-02-04T11:53:10.747Z,-2.19
2023-02-04T11:55:44.545Z,-2.25
2023-02-04T11:58:15.245Z,-2.26
2023-02-04T12:00:42.568Z,-2.22
2023-02-04T12:03:21.308Z,-2.23
2023-02-04T12:05:48.137Z,-2.20
2023-02-04T12:08:23.906Z,-2.17
2023-02-04T12:11:02.822Z,-2.04
2023-02-04T12:13:30.931Z,-2.02
2023-02-04T12:16:07.146Z,-2.04
2023-02-04T12:18:34.453Z,-1.98
2023-02-04T12:21:01.550Z,-1.97
2023-02-04T12:23:29.508Z,-1.99
2023-02-04T12:25:56.459Z,-2.05
2023-02-04T12:28:23.444Z,-2.14
2023-02-04T12:30:50.000Z,-2.17
2023-02-04T12:33:16.467Z,-2.19
2023-02-04T12:35:43.406Z,-2.24
2023-02-04T12:38:10.466Z,-2.34
2023-02-04T12:40:37.080Z,-2.29
2023-02-04T12:43:04.004Z,-2.26
2023-02-04T12:45:30.800Z,-2.29
2023-02-04T12:47:57.495Z,-2.26
2023-02-04T12:50:24.475Z,-2.16
2023-02-04T12:52:55.154Z,-2.06
2023-02-04T12:55:22.066Z,-2.08
2023-02-04T12:57:48.558Z,-2.11
2023-02-04T13:00:16.065Z,-2.18
2023-02-04T13:02:42.468Z,-2.21
2023-02-04T13:05:09.179Z,-2.21
2023-02-04T13:07:35.846Z,-2.20
2023-02-04T13:10:02.307Z,-2.15
2023-02-04T13:12:28.751Z,-2.18
2023-02-04T13:14:55.188Z,-2.13
2023-02-04T13:17:21.645Z,-2.08
2023-02-04T13:19:48.061Z,-2.12
2023-02-04T13:22:14.530Z,-2.12
2023-02-04T13:24:41.204Z,-2.13
2023-02-04T13:27:07.733Z,-2.14
2023-02-04T13:29:34.188Z,-2.24
2023-02-04T13:32:00.700Z,-2.29
2023-02-04T13:34:27.151Z,-2.36
2023-02-04T13:36:54.058Z,-2.39
2023-02-04T13:39:20.492Z,-2.38
2023-02-04T13:41:47.122Z,-2.35
2023-02-04T13:44:13.596Z,-2.29
2023-02-04T13:46:40.050Z,-2.39
2023-02-04T13:49:06.464Z,-2.44
2023-02-04T13:51:32.973Z,-2.40
2023-02-04T13:54:00.432Z,-2.43
2023-02-04T13:56:27.850Z,-2.47
2023-02-04T13:58:54.322Z,-2.44
2023-02-04T14:01:20.819Z,-2.46
2023-02-04T14:03:47.388Z,-2.46
2023-02-04T14:06:15.161Z,-2.54
2023-02-04T14:08:41.787Z,-2.51
2023-02-04T14:11:08.315Z,-2.67
2023-02-04T14:13:34.787Z,-2.66
2023-02-04T14:16:01.273Z,-2.63
2023-02-04T14:18:27.715Z,-2.62
2023-02-04T14:20:54.141Z,-2.56
2023-02-04T14:23:20.560Z,-2.60
2023-02-04T14:25:46.985Z,-2.55
2023-02-04T14:28:13.512Z,-2.53
2023-02-04T14:30:40.146Z,-2.48
2023-02-04T14:33:08.921Z,-2.55
2023-02-04T14:35:35.722Z,-2.66
2023-02-04T14:38:02.181Z,-2.67
2023-02-04T14:40:28.650Z,-2.67
2023-02-04T14:42:55.085Z,-2.66
2023-02-04T14:45:21.661Z,-2.62
2023-02-04T14:47:48.156Z,-2.58
2023-02-04T14:50:16.038Z,-2.55
2023-02-04T14:52:42.720Z,-2.53
2023-02-04T14:55:11.808Z,-2.55
2023-02-04T14:57:38.464Z,-2.64
2023-02-04T15:00:05.545Z,-2.76
2023-02-04T15:02:32.099Z,-2.76
2023-02-04T15:04:58.610Z,-2.85
2023-02-04T15:07:25.036Z,-2.86
2023-02-04T15:09:51.787Z,-2.83
2023-02-04T15:12:18.228Z,-2.93
2023-02-04T15:14:44.673Z,-2.87
2023-02-04T15:17:11.143Z,-2.83
2023-02-04T15:19:37.593Z,-2.82
2023-02-04T15:22:04.857Z,-2.81
2023-02-04T15:24:31.421Z,-2.89
2023-02-04T15:26:57.855Z,-2.90
2023-02-04T15:29:24.316Z,-2.97
2023-02-04T15:31:50.859Z,-2.98
2023-02-04T15:34:17.352Z,-2.96
2023-02-04T15:36:43.800Z,-3.04
2023-02-04T15:39:10.228Z,-3.11
2023-02-04T15:41:36.762Z,-3.04
2023-02-04T15:44:05.608Z,-3.05
2023-02-04T15:46:32.933Z,-3.06
2023-02-04T15:48:59.449Z,-3.02
2023-02-04T15:51:26.533Z,-3.08
2023-02-04T15:53:52.999Z,-3.06
2023-02-04T15:56:19.457Z,-3.03
2023-02-04T15:58:46.327Z,-2.97
2023-02-04T16:01:14.736Z,-2.94
2023-02-04T16:03:50.746Z,-2.91
2023-02-04T16:06:17.177Z,-2.99
2023-02-04T16:08:43.609Z,-2.98
2023-02-04T16:11:10.040Z,-3.03
2023-02-04T16:13:37.242Z,-3.07
2023-02-04T16:16:03.767Z,-3.10
2023-02-04T16:18:30.850Z,-3.06
2023-02-04T16:20:57.362Z,-3.05
2023-02-04T16:23:23.829Z,-3.02
2023-02-04T16:25:50.275Z,-3.07
2023-02-04T16:28:16.743Z,-3.07
2023-02-04T16:30:43.365Z,-3.03
2023-02-04T16:33:09.808Z,-3.15
2023-02-04T16:35:55.122Z,-3.19
2023-02-04T16:38:21.542Z,-3.19
2023-02-04T16:40:47.960Z,-3.06
2023-02-04T16:43:14.412Z,-3.07
2023-02-04T16:45:40.837Z,-3.03
2023-02-04T16:48:07.257Z,-2.97
2023-02-04T16:50:33.935Z,-2.95
2023-02-04T16:53:00.589Z,-3.05
2023-02-04T16:55:30.048Z,-3.06
2023-02-04T16:57:56.921Z,-3.07
2023-02-04T17:00:23.440Z,-3.11
2023-02-04T17:02:50.195Z,-3.14
2023-02-04T17:05:16.694Z,-3.26
2023-02-04T17:07:43.248Z,-3.38
2023-02-04T17:10:09.970Z,-3.36
2023-02-04T17:12:36.468Z,-3.35
2023-02-04T17:15:03.589Z,-3.31
2023-02-04T17:17:30.065Z,-3.32
2023-02-04T17:19:57.281Z,-3.33
2023-02-04T17:22:23.796Z,-3.27
2023-02-04T17:24:50.204Z,-3.28
2023-02-04T17:27:16.699Z,-3.28
2023-02-04T17:29:43.184Z,-3.26
2023-02-04T17:32:12.379Z,-3.19
2023-02-04T17:34:38.875Z,-3.19
2023-02-04T17:37:05.302Z,-3.16
2023-02-04T17:39:31.788Z,-3.19
2023-02-04T17:41:58.397Z,-3.16
2023-02-04T17:44:26.746Z,-3.20
2023-02-04T17:46:54.152Z,-3.24
2023-02-04T17:49:20.611Z,-3.21
2023-02-04T17:51:47.034Z,-3.19
2023-02-04T17:54:14.162Z,-3.15
2023-02-04T17:56:40.698Z,-3.19
2023-02-04T17:59:09.722Z,-3.16
2023-02-04T18:01:36.409Z,-3.17
2023-02-04T18:04:05.077Z,-3.20
2023-02-04T18:06:31.622Z,-3.22
2023-02-04T18:09:02.085Z,-3.26
2023-02-04T18:11:30.435Z,-3.20
2023-02-04T18:14:00.252Z,-3.23
2023-02-04T18:16:28.469Z,-3.28
2023-02-04T18:18:56.369Z,-3.28
2023-02-04T18:21:34.160Z,-3.24
2023-02-04T18:24:09.514Z,-3.19
2023-02-04T18:26:52.576Z,-3.21
2023-02-04T18:29:26.241Z,-3.17
2023-02-04T18:31:56.452Z,-3.19
2023-02-04T18:34:33.955Z,-3.18
2023-02-04T18:37:20.343Z,-3.22
2023-02-04T18:39:46.828Z,-3.16
2023-02-04T18:42:22.126Z,-3.18
2023-02-04T18:44:49.089Z,-3.14
2023-02-04T18:47:45.069Z,-3.13
2023-02-04T18:50:32.247Z,-3.07
2023-02-04T18:53:01.982Z,-3.05
2023-02-04T18:55:38.318Z,-3.03
2023-02-04T18:58:13.627Z,-3.02
2023-02-04T19:00:40.635Z,-2.99
2023-02-04T19:03:19.611Z,-3.04
2023-02-04T19:05:48.834Z,-3.13
2023-02-04T19:08:24.351Z,-3.15
2023-02-04T19:10:51.787Z,-3.08
2023-02-04T19:13:36.381Z,-3.13
2023-02-04T19:16:22.874Z,-3.14
2023-02-04T19:18:49.698Z,-3.19
2023-02-04T19:21:17.987Z,-3.09
2023-02-04T19:23:44.498Z,-3.10
2023-02-04T19:26:29.905Z,-3.05
2023-02-04T19:28:56.351Z,-3.13
2023-02-04T19:31:23.053Z,-3.08
2023-02-04T19:33:51.167Z,-3.11
2023-02-04T19:36:23.630Z,-3.15
2023-02-04T19:38:55.558Z,-3.26
2023-02-04T19:41:30.014Z,-3.38
2023-02-04T19:44:19.411Z,-3.63
2023-02-04T19:46:46.019Z,-3.87
2023-02-04T19:49:16.781Z,-3.96
2023-02-04T19:51:46.024Z,-3.85
2023-02-04T19:54:24.258Z,-3.96
2023-02-04T19:56:54.561Z,-3.93
2023-02-04T19:59:26.795Z,-3.88
2023-02-04T20:02:14.479Z,-3.78
2023-02-04T20:04:45.794Z,-3.93
2023-02-04T20:07:22.458Z,-3.96
2023-02-04T20:09:52.135Z,-3.94
2023-02-04T20:12:18.598Z,-3.91
2023-02-04T20:14:49.764Z,-3.96
2023-02-04T20:17:16.255Z,-3.92
2023-02-04T20:19:42.675Z,-4.02
2023-02-04T20:22:17.984Z,-4.01
2023-02-04T20:24:45.298Z,-4.09
2023-02-04T20:27:17.816Z,-4.05
2023-02-04T20:29:44.261Z,-4.01
2023-02-04T20:32:18.005Z,-4.02
2023-02-04T20:34:44.504Z,-3.91
2023-02-04T20:37:15.343Z,-3.87
2023-02-04T20:39:41.870Z,-3.79
2023-02-04T20:42:23.733Z,-3.85
2023-02-04T20:44:50.325Z,-3.89
2023-02-04T20:47:18.867Z,-4.00
2023-02-04T20:49:53.038Z,-4.00
2023-02-04T20:52:38.244Z,-3.91
2023-02-04T20:55:16.943Z,-3.88
2023-02-04T20:57:43.388Z,-3.86
2023-02-04T21:00:13.925Z,-3.83
2023-02-04T21:02:41.420Z,-3.86
2023-02-04T21:05:26.221Z,-3.83
2023-02-04T21:07:54.725Z,-3.89
2023-02-04T21:10:21.128Z,-3.90
2023-02-04T21:12:47.586Z,-3.85
2023-02-04T21:15:14.171Z,-3.90
2023-02-04T21:17:41.248Z,-3.85
2023-02-04T21:20:07.908Z,-3.94
2023-02-04T21:22:34.344Z,-3.93
2023-02-04T21:25:01.096Z,-3.84
2023-02-04T21:27:27.532Z,-3.82
2023-02-04T21:29:54.522Z,-3.86
2023-02-04T21:32:21.010Z,-3.84
2023-02-04T21:34:47.478Z,-3.81
2023-02-04T21:37:13.912Z,-3.74
2023-02-04T21:39:40.320Z,-3.81
2023-02-04T21:42:13.974Z,-3.82
2023-02-04T21:44:40.462Z,-3.77
2023-02-04T21:47:06.942Z,-3.71
2023-02-04T21:49:33.372Z,-3.77
2023-02-04T21:51:59.843Z,-3.89
2023-02-04T21:54:26.302Z,-3.86
2023-02-04T21:56:52.712Z,-3.90
2023-02-04T21:59:20.635Z,-3.85
2023-02-04T22:01:47.098Z,-3.92
2023-02-04T22:04:13.543Z,-3.93
2023-02-04T22:06:40.116Z,-3.86
2023-02-04T22:09:07.457Z,-3.82
2023-02-04T22:11:33.948Z,-3.80
2023-02-04T22:14:18.932Z,-3.81
2023-02-04T22:16:46.964Z,-3.74
2023-02-04T22:19:13.387Z,-3.68
2023-02-04T22:21:39.844Z,-3.64
2023-02-04T22:24:06.286Z,-3.71
2023-02-04T22:26:32.750Z,-3.69
2023-02-04T22:28:59.184Z,-3.67
2023-02-04T22:31:25.643Z,-3.60
2023-02-04T22:33:52.073Z,-3.56
2023-02-04T22:36:18.496Z,-3.65
2023-02-04T22:38:44.951Z,-3.64
2023-02-04T22:41:11.399Z,-3.76
2023-02-04T22:43:37.839Z,-3.81
2023-02-04T22:46:04.308Z,-3.84
2023-02-04T22:48:30.757Z,-3.87
2023-02-04T22:50:57.202Z,-3.77
2023-02-04T22:53:23.685Z,-3.66
2023-02-04T22:55:50.095Z,-3.59
2023-02-04T22:58:16.539Z,-3.61
2023-02-04T23:00:43.363Z,-3.67
2023-02-04T23:03:09.870Z,-3.65
2023-02-04T23:05:37.384Z,-3.64
2023-02-04T23:08:04.538Z,-3.72
2023-02-04T23:10:31.086Z,-3.80
2023-02-04T23:12:57.535Z,-3.75
2023-02-04T23:15:24.021Z,-3.68
2023-02-04T23:17:52.523Z,-3.69
2023-02-04T23:20:19.100Z,-3.75
2023-02-04T23:22:45.586Z,-3.66
2023-02-04T23:25:12.582Z,-3.62
2023-02-04T23:27:39.115Z,-3.67
2023-02-04T23:30:06.411Z,-3.58
2023-02-04T23:32:32.923Z,-3.50
2023-02-04T23:34:59.368Z,-3.51
2023-02-04T23:37:25.784Z,-3.47
2023-02-04T23:39:52.376Z,-3.52
2023-02-04T23:42:18.898Z,-3.54
2023-02-04T23:44:45.353Z,-3.57
2023-02-04T23:47:11.779Z,-3.62
2023-02-04T23:49:38.215Z,-3.76
2023-02-04T23:52:05.649Z,-3.79
2023-02-04T23:54:32.278Z,-3.87
2023-02-04T23:56:58.696Z,-3.97
2023-02-04T23:59:25.390Z,-3.95
